Time;durP1;ratioP1;P1;durP2;ratioP2;P2;SDS_P1;SDS_P2;PMS_P1;PMS_P2;Temp;Humidity;BMP_temperature;BMP_pressure;BME280_temperature;BME280_humidity;BME280_pressure;Samples;Min_cycle;Max_cycle;Signal;HPM_P1;HPM_P2
2022/01/05 05:41:18;;;;;;;6.75;3.65;;;;;;;4.55;79.43;98299.50;5026421;28;106215;-69
2022/01/05 05:43:45;;;;;;;8.85;5.63;;;;;;;4.59;80.15;98298.16;5007317;28;106800;-70
2022/01/05 05:46:10;;;;;;;7.10;5.13;;;;;;;4.63;80.29;98299.44;5025454;28;106178;-68
2022/01/05 05:48:35;;;;;;;6.63;4.78;;;;;;;4.69;80.43;98282.91;5025336;28;106055;-69
2022/01/05 05:51:01;;;;;;;5.70;4.10;;;;;;;4.73;80.32;98281.53;5024406;27;106247;-69
2022/01/05 05:53:26;;;;;;;7.63;4.70;;;;;;;4.79;80.47;98284.47;5026014;28;106070;-69
2022/01/05 05:55:52;;;;;;;6.85;4.85;;;;;;;4.85;80.71;98289.84;5024882;28;106127;-70
2022/01/05 05:58:17;;;;;;;8.68;5.35;;;;;;;4.88;80.51;98283.38;5024415;28;106342;-69
2022/01/05 06:00:42;;;;;;;9.27;5.72;;;;;;;4.89;80.48;98277.94;5024117;28;106278;-71
2022/01/05 06:03:08;;;;;;;8.73;5.50;;;;;;;4.92;80.12;98282.00;5018371;27;106317;-66
2022/01/05 06:05:33;;;;;;;7.00;4.82;;;;;;;4.93;80.64;98278.38;5024697;28;106216;-66
2022/01/05 06:07:59;;;;;;;8.23;5.55;;;;;;;4.94;80.74;98285.28;5024812;27;106817;-63
2022/01/05 06:10:25;;;;;;;7.45;5.53;;;;;;;4.97;80.56;98281.47;5024549;28;106176;-65
2022/01/05 06:12:50;;;;;;;8.43;5.85;;;;;;;5.00;80.58;98289.03;5025373;27;105912;-65
2022/01/05 06:15:16;;;;;;;7.07;5.78;;;;;;;5.03;80.46;98294.78;5025237;27;105904;-65
2022/01/05 06:17:41;;;;;;;8.68;5.38;;;;;;;5.07;80.68;98303.97;5024802;27;105865;-65
2022/01/05 06:20:09;;;;;;;8.18;5.18;;;;;;;5.10;80.69;98305.44;5024398;27;106031;-64
2022/01/05 06:22:38;;;;;;;8.82;5.43;;;;;;;5.11;80.68;98311.50;5025321;27;105907;-64
2022/01/05 06:25:03;;;;;;;9.13;5.88;;;;;;;5.11;80.40;98303.59;5024632;28;106034;-64
2022/01/05 06:27:29;;;;;;;8.38;5.38;;;;;;;5.09;80.31;98304.59;5024544;28;106610;-65
2022/01/05 06:29:54;;;;;;;7.22;5.05;;;;;;;5.09;80.62;98304.59;5024198;27;105875;-63
2022/01/05 06:32:20;;;;;;;7.57;5.13;;;;;;;5.11;80.79;98301.75;5025042;27;105816;-65
2022/01/05 06:34:45;;;;;;;7.70;4.95;;;;;;;5.13;80.83;98309.53;5023922;27;106225;-65
2022/01/05 06:37:10;;;;;;;8.98;4.78;;;;;;;5.13;80.56;98312.16;5024438;27;105777;-68
2022/01/05 06:39:36;;;;;;;7.32;4.80;;;;;;;5.13;80.50;98304.25;5023642;27;106032;-66
2022/01/05 06:42:01;;;;;;;10.05;6.20;;;;;;;5.09;80.22;98309.88;5025337;27;106631;-67
2022/01/05 06:44:27;;;;;;;11.70;7.93;;;;;;;5.09;80.58;98311.69;5024105;27;106182;-64
2022/01/05 06:46:52;;;;;;;9.90;7.68;;;;;;;5.05;80.17;98313.88;5023947;27;105887;-64
2022/01/05 06:49:20;;;;;;;12.55;7.38;;;;;;;5.06;80.08;98309.44;5011569;27;106104;-65
2022/01/05 06:51:46;;;;;;;8.50;5.50;;;;;;;5.04;80.19;98312.25;4996521;28;106472;-68
2022/01/05 06:54:11;;;;;;;8.02;4.38;;;;;;;5.02;80.02;98314.25;4991010;28;106393;-65
2022/01/05 06:56:36;;;;;;;7.75;5.43;;;;;;;4.99;80.11;98308.50;4990581;28;106036;-65
2022/01/05 06:59:02;;;;;;;9.82;4.95;;;;;;;4.95;79.90;98308.06;4989287;28;106171;-65
2022/01/05 07:01:27;;;;;;;7.03;5.47;;;;;;;4.93;80.05;98310.03;4990680;28;105930;-63
2022/01/05 07:03:53;;;;;;;9.43;5.10;;;;;;;4.93;79.94;98310.03;4990614;28;106232;-63
2022/01/05 07:06:18;;;;;;;6.97;5.03;;;;;;;4.93;80.04;98309.22;4989977;28;106748;-65
2022/01/05 07:08:43;;;;;;;7.90;4.72;;;;;;;4.91;80.11;98314.69;4990123;28;105894;-67
2022/01/05 07:11:09;;;;;;;8.90;5.00;;;;;;;4.91;80.22;98310.22;4990748;28;106086;-64
2022/01/05 07:13:34;;;;;;;7.38;4.68;;;;;;;4.93;80.32;98304.75;4990135;28;105931;-66
2022/01/05 07:15:59;;;;;;;8.32;5.20;;;;;;;4.94;80.13;98310.88;4989800;28;105705;-65
2022/01/05 07:18:24;;;;;;;8.63;5.20;;;;;;;4.95;80.13;98313.34;4990184;28;105747;-67
2022/01/05 07:20:50;;;;;;;9.15;5.22;;;;;;;4.98;80.57;98312.16;4991276;28;105885;-66
2022/01/05 07:23:15;;;;;;;8.88;5.50;;;;;;;4.99;80.22;98314.59;4990423;28;106243;-65
2022/01/05 07:25:40;;;;;;;9.00;4.35;;;;;;;4.99;80.28;98311.97;4989859;28;109679;-66
2022/01/05 07:28:06;;;;;;;7.78;5.07;;;;;;;5.03;80.00;98312.41;4990312;28;105853;-66
2022/01/05 07:30:32;;;;;;;8.40;4.60;;;;;;;5.03;80.09;98312.41;4991329;28;106146;-67
2022/01/05 07:32:57;;;;;;;8.80;5.55;;;;;;;5.01;79.91;98317.88;4990404;28;106187;-66
2022/01/05 07:35:23;;;;;;;7.28;5.43;;;;;;;5.00;80.05;98304.84;4990219;28;106596;-66
2022/01/05 07:37:48;;;;;;;6.20;4.38;;;;;;;4.99;79.64;98306.69;4989778;28;106499;-66
2022/01/05 07:40:13;;;;;;;10.43;5.50;;;;;;;4.99;79.91;98303.22;4990772;28;106141;-66
2022/01/05 07:42:39;;;;;;;8.07;5.70;;;;;;;5.02;80.19;98308.97;4990208;28;105836;-68
2022/01/05 07:45:07;;;;;;;8.32;5.28;;;;;;;5.05;80.12;98305.16;5000451;28;106357;-69
2022/01/05 07:47:33;;;;;;;9.50;4.90;;;;;;;5.07;79.99;98295.22;5009354;28;106153;-67
2022/01/05 07:49:58;;;;;;;10.30;5.35;;;;;;;5.10;80.10;98302.78;5010431;28;105902;-68
2022/01/05 07:52:23;;;;;;;7.45;5.22;;;;;;;5.12;79.95;98310.53;5009757;28;106387;-67
2022/01/05 07:54:51;;;;;;;9.35;5.15;;;;;;;5.13;80.15;98315.63;5009175;28;106510;-67
2022/01/05 07:57:16;;;;;;;8.88;6.53;;;;;;;5.15;80.05;98305.69;5009275;28;105923;-67
2022/01/05 07:59:42;;;;;;;12.85;9.30;;;;;;;5.17;80.03;98310.81;5008457;28;106124;-67
2022/01/05 08:02:07;;;;;;;15.40;11.23;;;;;;;5.21;80.01;98314.72;5009516;28;106207;-68
2022/01/05 08:04:32;;;;;;;17.20;10.85;;;;;;;5.23;80.39;98308.22;5008151;28;106409;-69
2022/01/05 08:06:58;;;;;;;9.52;6.40;;;;;;;5.26;80.25;98320.25;5008928;28;106163;-67
2022/01/05 08:09:23;;;;;;;11.10;6.60;;;;;;;5.28;79.96;98318.25;5010313;28;105842;-67
2022/01/05 08:11:48;;;;;;;17.85;7.55;;;;;;;5.31;80.28;98317.88;5009994;28;106063;-67
2022/01/05 08:14:14;;;;;;;13.20;7.55;;;;;;;5.35;80.19;98302.50;5009117;28;107471;-67
2022/01/05 08:16:39;;;;;;;12.30;8.10;;;;;;;5.36;79.99;98312.88;5008153;28;106167;-67
2022/01/05 08:19:05;;;;;;;11.52;7.97;;;;;;;5.39;80.24;98317.00;5008808;28;105925;-67
2022/01/05 08:21:30;;;;;;;11.50;7.50;;;;;;;5.41;80.11;98334.28;4988843;28;106254;-67
2022/01/05 08:23:55;;;;;;;15.02;7.38;;;;;;;5.42;79.92;98319.25;4988815;28;106031;-68
2022/01/05 08:26:21;;;;;;;13.68;7.20;;;;;;;5.41;79.83;98322.88;4995808;28;106050;-68
2022/01/05 08:28:46;;;;;;;11.52;7.22;;;;;;;5.40;79.71;98335.28;5008863;28;105921;-69
2022/01/05 08:31:12;;;;;;;15.30;7.60;;;;;;;5.41;79.71;98334.28;5008609;28;106286;-69
2022/01/05 08:33:37;;;;;;;13.52;7.80;;;;;;;5.45;79.80;98333.91;5008457;28;105963;-69
2022/01/05 08:36:03;;;;;;;13.73;7.05;;;;;;;5.50;80.18;98342.13;5008390;28;106016;-67
2022/01/05 08:38:29;;;;;;;12.93;7.50;;;;;;;5.51;80.24;98338.47;5009360;28;106084;-66
2022/01/05 08:40:55;;;;;;;13.38;7.28;;;;;;;5.51;79.67;98349.84;5008419;28;106294;-66
2022/01/05 08:43:21;;;;;;;14.43;7.60;;;;;;;5.53;80.01;98336.47;5000272;28;105943;-68
2022/01/05 08:45:47;;;;;;;13.20;6.40;;;;;;;5.55;79.98;98343.22;4993898;28;106075;-67
2022/01/05 08:48:13;;;;;;;13.55;6.68;;;;;;;5.56;79.91;98328.16;4989725;28;106010;-66
2022/01/05 08:50:39;;;;;;;9.77;5.82;;;;;;;5.55;79.72;98337.09;4988928;28;106256;-66
2022/01/05 08:53:06;;;;;;;10.60;5.13;;;;;;;5.54;79.54;98338.13;4988612;28;105956;-66
2022/01/05 08:55:44;;;;;;;9.20;5.60;;;;;;;5.57;79.68;98324.53;4997149;28;105977;-66
2022/01/05 08:58:11;;;;;;;9.52;6.97;;;;;;;5.57;79.61;98332.44;4997860;28;106126;-65
2022/01/05 09:00:36;;;;;;;7.05;4.07;;;;;;;5.55;79.40;98337.09;4998219;28;105997;-67
2022/01/05 09:03:04;;;;;;;8.05;4.85;;;;;;;5.56;79.64;98341.38;4995933;28;106055;-67
2022/01/05 09:05:30;;;;;;;5.82;3.55;;;;;;;5.55;79.60;98339.72;4993453;28;106585;-65
2022/01/05 09:07:55;;;;;;;5.93;4.28;;;;;;;5.53;79.24;98347.03;5002164;28;107076;-65
2022/01/05 09:10:21;;;;;;;5.85;3.53;;;;;;;5.55;79.33;98331.81;4993882;28;106086;-66
2022/01/05 09:12:46;;;;;;;6.57;3.60;;;;;;;5.56;79.46;98342.22;4986653;28;106172;-67
2022/01/05 09:15:12;;;;;;;5.93;3.60;;;;;;;5.57;79.13;98338.53;4988285;28;106110;-66
2022/01/05 09:17:38;;;;;;;5.63;3.78;;;;;;;5.59;79.33;98341.00;4989065;28;106049;-66
2022/01/05 09:20:05;;;;;;;6.35;3.75;;;;;;;5.59;79.41;98341.00;4988022;28;106044;-64
2022/01/05 09:22:31;;;;;;;6.43;4.07;;;;;;;5.58;79.38;98350.75;4993562;28;106388;-66
2022/01/05 09:24:56;;;;;;;5.78;3.50;;;;;;;5.58;79.49;98345.47;5001113;28;106039;-65
2022/01/05 09:27:21;;;;;;;7.43;3.38;;;;;;;5.61;79.27;98340.84;5000082;28;105987;-66
2022/01/05 09:29:47;;;;;;;5.85;3.40;;;;;;;5.58;79.39;98334.91;4989157;28;106197;-68
2022/01/05 09:32:13;;;;;;;4.50;3.03;;;;;;;5.58;79.33;98337.56;4988202;28;106071;-65
2022/01/05 09:34:40;;;;;;;5.97;3.47;;;;;;;5.59;79.25;98341.00;4987994;28;105930;-66
2022/01/05 09:37:22;;;;;;;11.35;5.32;;;;;;;5.56;79.06;98350.13;4997002;28;106049;-66
2022/01/05 09:42:32;;;;;;;12.68;5.00;;;;;;;5.66;79.40;98352.50;4988398;28;106439;-66
2022/01/05 09:44:58;;;;;;;9.18;4.10;;;;;;;5.70;79.87;98343.19;4987691;28;105999;-65
2022/01/05 09:47:35;;;;;;;6.85;3.83;;;;;;;5.76;79.60;98355.66;4988609;28;105797;-67
2022/01/05 09:50:03;;;;;;;5.38;3.22;;;;;;;5.81;79.34;98357.75;4987994;28;106074;-66
2022/01/05 09:52:30;;;;;;;5.13;2.47;;;;;;;5.84;79.49;98367.16;4987375;28;107269;-67
2022/01/05 09:54:56;;;;;;;5.05;2.55;;;;;;;5.84;79.19;98375.88;4987070;28;107126;-67
2022/01/05 09:57:22;;;;;;;5.65;2.80;;;;;;;5.83;79.25;98368.16;4988097;28;106018;-67
2022/01/05 09:59:50;;;;;;;5.57;2.45;;;;;;;5.84;79.22;98356.56;4985796;28;106322;-67
2022/01/05 10:02:16;;;;;;;5.20;2.42;;;;;;;5.84;78.99;98344.16;4987130;28;106340;-67
2022/01/05 10:04:43;;;;;;;4.55;2.80;;;;;;;5.85;78.47;98356.38;4985517;28;106370;-66
2022/01/05 10:07:09;;;;;;;4.57;2.45;;;;;;;5.84;78.71;98360.03;4988052;28;106089;-66
2022/01/05 10:09:42;;;;;;;5.63;2.65;;;;;;;5.83;78.77;98368.16;4987595;28;106008;-67
2022/01/05 10:12:09;;;;;;;6.22;2.42;;;;;;;5.82;78.95;98369.13;4987045;28;105931;-68
2022/01/05 10:14:39;;;;;;;5.18;3.42;;;;;;;5.81;78.93;98375.41;4987467;28;106074;-69
2022/01/05 10:17:05;;;;;;;8.57;4.83;;;;;;;5.84;78.98;98369.78;4987731;28;105856;-69
2022/01/05 10:19:32;;;;;;;5.57;3.10;;;;;;;5.82;78.74;98372.59;4986427;28;106244;-69
2022/01/05 10:21:58;;;;;;;5.35;3.15;;;;;;;5.81;78.34;98373.63;4987152;28;106271;-69
2022/01/05 10:25:02;;;;;;;4.88;2.42;;;;;;;5.83;78.58;98384.00;4987168;28;105810;-69
2022/01/05 10:27:28;;;;;;;3.20;1.77;;;;;;;5.82;78.63;98385.81;4948352;28;106373;-67
2022/01/05 10:30:04;;;;;;;5.55;2.25;;;;;;;5.80;78.60;98390.47;4981802;28;106002;-68
2022/01/05 10:32:32;;;;;;;6.40;2.25;;;;;;;5.77;78.12;98404.06;4994886;28;105940;-69
2022/01/05 10:35:24;;;;;;;3.92;2.33;;;;;;;5.74;78.47;98402.59;4989828;28;106183;-69
2022/01/05 10:38:16;;;;;;;4.55;2.58;;;;;;;5.74;78.53;98423.72;4991412;28;105984;-67
2022/01/05 10:40:43;;;;;;;5.18;2.10;;;;;;;5.74;78.81;98436.09;4986861;28;105981;-67
2022/01/05 10:43:13;;;;;;;5.68;1.55;;;;;;;5.67;78.22;98435.19;4990561;28;106068;-67
2022/01/05 10:45:45;;;;;;;3.58;1.70;;;;;;;5.49;77.98;98431.09;4989583;28;106074;-67
2022/01/05 10:48:19;;;;;;;2.40;1.50;;;;;;;5.29;78.04;98451.94;4990990;28;105895;-68
2022/01/05 10:50:47;;;;;;;3.50;1.65;;;;;;;5.14;77.75;98461.59;4990842;28;105897;-67
2022/01/05 10:53:15;;;;;;;1.50;1.27;;;;;;;5.02;77.93;98467.31;4990228;28;105967;-68
2022/01/05 10:55:44;;;;;;;1.50;0.93;;;;;;;4.87;78.08;98467.25;4989678;28;106170;-67
2022/01/05 10:58:12;;;;;;;1.52;1.02;;;;;;;4.73;78.03;98460.13;4990731;28;105872;-67
2022/01/05 11:00:40;;;;;;;1.92;1.23;;;;;;;4.63;78.07;98468.22;4990186;28;106110;-68
2022/01/05 11:03:30;;;;;;;2.50;1.40;;;;;;;4.55;78.29;98498.13;4989680;28;106320;-67
2022/01/05 11:05:59;;;;;;;4.47;1.20;;;;;;;4.48;77.93;98488.44;4989282;28;106171;-67
2022/01/05 11:08:25;;;;;;;1.90;0.90;;;;;;;4.42;78.23;98481.22;4990999;28;106457;-65
2022/01/05 11:10:50;;;;;;;1.85;0.95;;;;;;;4.39;78.42;98479.75;4989767;28;105929;-65
2022/01/05 11:13:15;;;;;;;2.47;1.25;;;;;;;4.38;78.26;98471.00;4989888;28;105993;-66
2022/01/05 11:15:40;;;;;;;1.88;1.10;;;;;;;4.37;78.65;98472.03;4987129;28;106110;-67
2022/01/05 11:18:18;;;;;;;1.75;1.10;;;;;;;4.35;78.38;98502.19;4991091;28;105848;-67
2022/01/05 11:20:59;;;;;;;2.83;1.00;;;;;;;4.29;78.26;98513.41;4990104;28;106076;-66
2022/01/05 11:23:26;;;;;;;4.15;1.90;;;;;;;4.28;78.60;98514.38;4989856;28;105910;-67
2022/01/05 11:25:55;;;;;;;4.55;2.45;;;;;;;4.23;78.38;98514.91;4989763;28;106099;-67
2022/01/05 11:28:24;;;;;;;5.25;2.13;;;;;;;4.17;78.04;98526.13;4990485;28;105951;-67
2022/01/05 11:30:51;;;;;;;5.93;1.88;;;;;;;4.13;78.60;98551.16;4991792;28;105832;-67
2022/01/05 11:33:18;;;;;;;3.38;1.30;;;;;;;4.04;78.05;98553.81;5008872;28;106132;-69
2022/01/05 11:35:43;;;;;;;5.45;1.70;;;;;;;3.97;78.05;98555.50;5008436;28;105940;-69
2022/01/05 11:38:10;;;;;;;3.72;1.42;;;;;;;3.88;78.20;98559.97;5009440;28;106000;-71
2022/01/05 11:40:45;;;;;;;4.82;2.13;;;;;;;3.83;78.10;98561.47;5008907;28;106225;-71
2022/01/05 11:43:21;;;;;;;2.92;1.00;;;;;;;3.79;78.00;98562.78;5008996;28;105872;-68
2022/01/05 11:45:47;;;;;;;5.97;1.92;;;;;;;3.69;78.33;98561.13;5008646;28;106949;-68
2022/01/05 11:48:13;;;;;;;4.32;1.83;;;;;;;3.63;78.20;98561.78;5009735;28;106192;-68
2022/01/05 11:50:48;;;;;;;3.80;1.67;;;;;;;3.61;78.20;98558.50;5009184;28;106119;-66
2022/01/05 11:53:15;;;;;;;3.40;1.55;;;;;;;3.60;78.05;98548.97;5008896;28;106744;-68
2022/01/05 11:55:58;;;;;;;2.33;1.30;;;;;;;3.60;78.52;98543.69;5009108;28;106467;-68
2022/01/05 11:58:26;;;;;;;5.10;1.88;;;;;;;3.60;78.05;98548.16;5009661;28;105830;-68
2022/01/05 12:01:16;;;;;;;3.75;1.35;;;;;;;3.60;78.11;98559.50;5009270;28;106104;-68
2022/01/05 12:03:59;;;;;;;3.13;1.38;;;;;;;3.61;78.21;98565.56;5008798;28;105918;-69
2022/01/05 12:06:31;;;;;;;5.30;2.10;;;;;;;3.54;78.05;98578.56;5007786;28;106289;-67
2022/01/05 12:08:59;;;;;;;7.00;2.55;;;;;;;3.51;77.84;98569.22;5009710;28;106035;-68
2022/01/05 12:11:38;;;;;;;6.38;2.05;;;;;;;3.46;78.01;98555.72;5009027;28;105938;-68
2022/01/05 12:14:21;;;;;;;3.47;1.80;;;;;;;3.48;77.69;98579.25;5009067;28;105814;-68
2022/01/05 12:16:59;;;;;;;5.00;3.03;;;;;;;3.48;78.21;98571.34;5008697;28;105889;-69
2022/01/05 12:19:26;;;;;;;4.43;2.05;;;;;;;3.43;77.86;98581.53;5009637;28;105892;-68
2022/01/05 12:21:53;;;;;;;20.17;2.50;;;;;;;3.38;77.98;98584.69;5008816;28;106070;-68
2022/01/05 12:24:19;;;;;;;5.53;1.75;;;;;;;3.32;77.89;98594.06;5006893;28;106993;-67
2022/01/05 12:27:05;;;;;;;7.90;2.25;;;;;;;3.32;77.81;98596.69;5008074;28;106108;-65
2022/01/05 12:29:31;;;;;;;2.45;1.30;;;;;;;3.32;77.91;98596.69;5009114;28;106177;-62
2022/01/05 12:31:59;;;;;;;3.72;1.48;;;;;;;3.29;77.63;98599.63;5008797;28;106373;-66
2022/01/05 12:34:56;;;;;;;4.32;2.13;;;;;;;3.23;77.82;98600.28;5008295;28;105861;-65
2022/01/05 12:37:49;;;;;;;11.55;3.60;;;;;;;3.18;78.04;98595.50;5008591;28;106112;-69
2022/01/05 12:40:21;;;;;;;7.30;2.50;;;;;;;3.21;77.63;98583.81;5008737;28;106171;-68
2022/01/05 12:42:47;;;;;;;8.70;2.95;;;;;;;3.18;77.44;98584.16;5007719;28;106220;-68
2022/01/05 12:45:49;;;;;;;13.35;4.95;;;;;;;3.19;78.23;98575.28;5002545;28;106102;-67
2022/01/05 12:48:33;;;;;;;5.25;2.63;;;;;;;3.22;78.16;98585.47;4993122;28;106030;-67
2022/01/05 12:54:00;;;;;;;7.63;2.25;;;;;;;3.09;77.92;98590.38;4988334;28;105992;-68
2022/01/05 12:56:32;;;;;;;8.60;2.55;;;;;;;3.04;78.08;98590.88;4988027;28;105940;-67
2022/01/05 12:58:59;;;;;;;5.68;2.25;;;;;;;3.01;78.35;98584.13;4988012;28;106186;-67
2022/01/05 13:01:26;;;;;;;5.35;2.13;;;;;;;3.01;78.18;98593.84;4988581;28;105994;-68
2022/01/05 13:03:56;;;;;;;5.60;2.38;;;;;;;3.00;77.89;98587.72;4986928;28;106189;-68
2022/01/05 13:06:24;;;;;;;6.07;2.42;;;;;;;2.99;78.25;98580.84;4985820;28;106349;-67
2022/01/05 13:08:55;;;;;;;3.10;1.85;;;;;;;2.99;78.40;98578.22;4985968;28;106436;-67
2022/01/05 13:11:52;;;;;;;6.18;2.88;;;;;;;2.99;77.83;98586.09;4987060;28;106048;-67
2022/01/05 13:14:28;;;;;;;4.78;2.13;;;;;;;2.98;77.95;98589.72;4986194;28;106318;-68
2022/01/05 13:17:12;;;;;;;4.28;2.28;;;;;;;3.02;78.00;98584.94;4987106;28;106729;-68
2022/01/05 13:19:51;;;;;;;4.82;2.38;;;;;;;3.05;77.83;98601.22;4987409;28;105907;-68
2022/01/05 13:22:28;;;;;;;4.70;2.20;;;;;;;3.08;77.86;98605.34;4989031;28;106840;-67
2022/01/05 13:24:59;;;;;;;4.47;2.53;;;;;;;3.05;78.05;98601.22;4988357;28;106392;-67
2022/01/05 13:27:30;;;;;;;8.38;4.03;;;;;;;3.05;78.24;98595.97;4987739;28;106052;-67
2022/01/05 13:29:59;;;;;;;7.75;2.55;;;;;;;3.01;78.15;98605.16;4987171;28;106422;-67
2022/01/05 13:32:27;;;;;;;4.60;2.22;;;;;;;2.98;77.78;98607.28;4987778;28;105828;-67
2022/01/05 13:35:12;;;;;;;7.65;2.50;;;;;;;2.96;77.85;98604.81;4987170;28;106158;-67
2022/01/05 13:37:45;;;;;;;4.75;2.05;;;;;;;2.95;78.10;98600.53;4987549;28;106221;-68
2022/01/05 13:40:12;;;;;;;6.18;1.80;;;;;;;2.97;78.00;98598.56;4986581;28;106302;-67
2022/01/05 13:43:00;;;;;;;3.38;1.65;;;;;;;2.97;77.92;98611.72;4988253;28;106399;-67
2022/01/05 13:45:46;;;;;;;4.07;1.80;;;;;;;2.96;77.67;98612.72;4987488;28;105866;-67
2022/01/05 13:48:23;;;;;;;6.50;3.20;;;;;;;2.90;77.48;98602.00;4987839;28;106037;-67
2022/01/05 13:50:52;;;;;;;5.00;2.33;;;;;;;2.86;77.56;98619.94;4987512;28;106078;-68
2022/01/05 13:53:22;;;;;;;4.50;1.67;;;;;;;2.82;77.14;98611.53;4988913;28;105909;-68
2022/01/05 13:55:51;;;;;;;5.47;2.53;;;;;;;2.80;77.64;98629.28;4987338;28;106310;-69
2022/01/05 13:58:18;;;;;;;3.88;2.15;;;;;;;2.78;77.80;98627.78;4987525;28;105914;-69
2022/01/05 14:00:47;;;;;;;6.28;2.33;;;;;;;2.77;78.07;98640.09;4987245;28;106033;-68
2022/01/05 14:03:34;;;;;;;4.45;2.25;;;;;;;2.81;77.64;98651.13;4991477;28;106354;-67
2022/01/05 14:06:01;;;;;;;4.50;2.13;;;;;;;2.82;77.70;98663.31;4991349;28;105871;-68
2022/01/05 14:08:30;;;;;;;5.30;2.97;;;;;;;2.79;77.39;98659.19;4991138;28;105971;-68
2022/01/05 14:11:22;;;;;;;4.82;2.90;;;;;;;2.73;77.10;98664.25;4995993;28;106429;-69
2022/01/05 14:13:56;;;;;;;6.38;3.28;;;;;;;2.67;77.46;98660.44;4994528;28;106422;-68
2022/01/05 14:16:41;;;;;;;5.22;2.33;;;;;;;2.65;77.17;98665.88;5009384;28;106218;-68
2022/01/05 14:19:13;;;;;;;7.88;2.55;;;;;;;2.59;77.19;98668.28;5009183;28;105976;-68
2022/01/05 14:21:48;;;;;;;3.95;1.95;;;;;;;2.55;77.32;98665.13;5009558;28;106193;-68
2022/01/05 14:24:16;;;;;;;6.20;2.03;;;;;;;2.49;77.00;98673.66;5010658;28;105972;-68
2022/01/05 14:26:46;;;;;;;5.45;2.20;;;;;;;2.46;77.13;98679.22;5010304;28;106455;-68
2022/01/05 14:29:12;;;;;;;3.38;1.27;;;;;;;2.41;76.98;98681.50;5008735;28;106566;-68
2022/01/05 14:31:40;;;;;;;4.97;1.60;;;;;;;2.32;77.16;98677.97;5008309;28;106500;-68
2022/01/05 14:34:12;;;;;;;3.08;1.70;;;;;;;2.27;76.96;98682.88;5008611;28;106381;-68
2022/01/05 14:36:39;;;;;;;5.95;2.55;;;;;;;2.21;77.10;98679.06;5008481;28;106637;-68
2022/01/05 14:39:12;;;;;;;2.85;1.85;;;;;;;2.16;77.04;98683.94;5007640;28;106326;-68
2022/01/05 14:41:42;;;;;;;7.53;2.97;;;;;;;2.11;77.00;98680.97;5007520;28;106125;-68
2022/01/05 14:44:23;;;;;;;6.27;2.00;;;;;;;2.03;76.89;98679.91;5010494;28;106545;-68
2022/01/05 14:46:51;;;;;;;5.82;2.67;;;;;;;1.96;77.12;98668.38;5010945;28;106224;-68
2022/01/05 14:49:18;;;;;;;8.07;3.20;;;;;;;1.90;76.75;98679.50;5010101;28;106619;-68
2022/01/05 14:51:46;;;;;;;6.20;2.13;;;;;;;1.86;77.16;98683.41;5009672;28;105981;-68
2022/01/05 14:54:12;;;;;;;7.35;3.33;;;;;;;1.81;77.22;98691.72;5009502;28;105876;-68
2022/01/05 14:56:39;;;;;;;6.70;2.97;;;;;;;1.77;77.01;98687.75;5010332;28;106289;-68
2022/01/05 14:59:06;;;;;;;12.10;3.63;;;;;;;1.73;77.21;98680.34;5009865;28;105810;-67
2022/01/05 15:01:32;;;;;;;9.50;3.20;;;;;;;1.69;77.46;98685.88;5007975;28;106026;-68
2022/01/05 15:03:57;;;;;;;7.72;3.20;;;;;;;1.66;77.54;98701.91;5011147;28;105988;-68
2022/01/05 15:06:23;;;;;;;6.50;3.58;;;;;;;1.60;77.50;98710.41;5010537;28;106529;-68
2022/01/05 15:08:48;;;;;;;6.18;3.17;;;;;;;1.58;77.36;98722.03;5010344;28;106066;-67
2022/01/05 15:11:14;;;;;;;7.65;3.53;;;;;;;1.55;77.50;98728.41;5009744;28;106082;-68
2022/01/05 15:13:39;;;;;;;7.72;3.03;;;;;;;1.55;77.27;98728.41;5010239;28;106067;-68
2022/01/05 15:16:05;;;;;;;7.05;2.30;;;;;;;1.56;77.35;98735.31;5010143;28;106205;-68
2022/01/05 15:18:30;;;;;;;8.00;3.17;;;;;;;1.55;77.38;98744.16;5009984;28;105976;-68
2022/01/05 15:20:56;;;;;;;4.75;2.70;;;;;;;1.51;77.06;98738.34;5009634;28;106095;-68
2022/01/05 15:23:25;;;;;;;9.32;3.13;;;;;;;1.52;77.30;98745.25;5010059;28;106008;-68
2022/01/05 15:25:53;;;;;;;11.55;3.40;;;;;;;1.50;77.09;98756.88;5009458;28;106233;-68
2022/01/05 15:28:19;;;;;;;7.63;3.30;;;;;;;1.48;77.04;98750.97;5008809;28;106274;-68
2022/01/05 15:30:46;;;;;;;5.53;2.92;;;;;;;1.44;77.09;98747.78;5009772;28;106333;-71
2022/01/05 15:33:12;;;;;;;4.57;2.33;;;;;;;1.44;76.95;98750.41;5010496;28;106133;-70
2022/01/05 15:35:38;;;;;;;8.18;2.75;;;;;;;1.44;76.88;98762.72;5010437;28;106139;-67
2022/01/05 15:38:04;;;;;;;3.97;2.10;;;;;;;1.42;76.63;98764.66;5009802;28;106945;-67
2022/01/05 15:40:29;;;;;;;3.08;1.70;;;;;;;1.44;76.16;98757.47;5008978;28;106595;-67
2022/01/05 15:42:55;;;;;;;4.70;2.47;;;;;;;1.48;76.51;98764.91;5007673;28;106398;-69
2022/01/05 15:45:20;;;;;;;4.15;2.00;;;;;;;1.49;75.95;98770.97;5004248;28;106195;-70
2022/01/05 15:47:45;;;;;;;6.07;2.47;;;;;;;1.43;75.69;98771.56;5005156;28;106357;-68
2022/01/05 15:50:11;;;;;;;5.45;2.22;;;;;;;1.39;75.68;98776.28;4999135;28;106169;-69
2022/01/05 15:52:39;;;;;;;8.30;2.72;;;;;;;1.38;75.82;98763.28;4998994;28;106125;-68
2022/01/05 15:55:09;;;;;;;9.10;4.20;;;;;;;1.35;75.53;98764.41;4998472;28;106340;-72
2022/01/05 16:02:44;;;;;;;6.20;3.08;;;;;;;1.26;75.39;98787.13;4999407;28;105752;-70
2022/01/05 16:05:09;;;;;;;5.35;2.33;;;;;;;1.22;75.00;98787.53;4998787;28;106132;-70
2022/01/05 16:07:34;;;;;;;3.33;1.33;;;;;;;1.16;75.06;98795.03;4998318;28;106046;-69
2022/01/05 16:10:00;;;;;;;6.85;2.42;;;;;;;1.14;74.88;98778.59;4999264;28;106054;-68
2022/01/05 16:12:25;;;;;;;7.65;2.80;;;;;;;1.10;75.15;98786.91;4998214;28;106182;-70
2022/01/05 16:14:53;;;;;;;6.97;3.28;;;;;;;1.05;74.81;98795.19;4997994;28;107251;-68
2022/01/05 16:17:18;;;;;;;5.70;3.03;;;;;;;1.03;74.85;98791.09;4999017;28;105928;-67
2022/01/05 16:19:44;;;;;;;5.88;2.60;;;;;;;0.98;74.73;98791.50;4997845;28;105947;-68
2022/01/05 16:22:09;;;;;;;5.10;2.80;;;;;;;0.93;74.94;98794.56;4999132;28;106109;-69
2022/01/05 16:24:34;;;;;;;13.27;4.50;;;;;;;0.87;74.55;98791.69;4996860;28;106274;-67
2022/01/05 16:27:00;;;;;;;8.30;3.25;;;;;;;0.83;74.81;98796.38;4999301;28;106927;-66
2022/01/05 16:29:26;;;;;;;12.68;3.10;;;;;;;0.81;74.95;98793.06;5000362;28;106111;-67
2022/01/05 16:31:51;;;;;;;9.38;3.72;;;;;;;0.77;74.67;98786.47;4995464;28;106319;-68
2022/01/05 16:34:17;;;;;;;11.70;3.90;;;;;;;0.72;74.50;98788.69;5007916;28;105787;-67
2022/01/05 16:36:43;;;;;;;8.88;3.60;;;;;;;0.67;74.79;98786.50;5008838;28;106338;-69
2022/01/05 16:39:10;;;;;;;10.00;3.47;;;;;;;0.64;74.87;98790.22;5007621;28;106102;-67
2022/01/05 16:41:36;;;;;;;10.45;3.63;;;;;;;0.61;74.92;98793.09;5009374;28;106194;-66
2022/01/05 16:44:01;;;;;;;4.80;2.63;;;;;;;0.61;74.74;98792.28;5008707;28;106216;-69
2022/01/05 16:46:27;;;;;;;8.48;2.67;;;;;;;0.59;74.70;98781.09;5008727;28;105928;-66
2022/01/05 16:48:53;;;;;;;13.75;3.80;;;;;;;0.57;74.60;98796.97;5008473;28;106607;-70
2022/01/05 16:51:18;;;;;;;6.95;2.20;;;;;;;0.56;74.58;98784.84;5009695;28;105863;-66
2022/01/05 16:53:46;;;;;;;4.63;2.03;;;;;;;0.58;74.28;98792.56;5007336;28;106301;-68
2022/01/05 16:56:13;;;;;;;5.45;3.13;;;;;;;0.60;74.16;98791.47;5008850;28;107447;-71
2022/01/05 17:01:27;;;;;;;9.32;2.95;;;;;;;0.61;74.12;98800.97;4997662;28;106464;-69
2022/01/05 17:03:53;;;;;;;7.47;4.00;;;;;;;0.64;74.37;98807.72;5008671;28;106192;-69
2022/01/05 17:06:19;;;;;;;7.85;3.35;;;;;;;0.66;74.12;98796.13;4998771;28;105848;-68
2022/01/05 17:08:45;;;;;;;6.60;2.72;;;;;;;0.70;73.85;98807.16;4997003;28;106049;-69
2022/01/05 17:11:10;;;;;;;8.38;3.58;;;;;;;0.77;74.09;98812.69;4998162;28;106076;-68
